Time;durP1;ratioP1;P1;durP2;ratioP2;P2;SDS_P1;SDS_P2;PMS_P1;PMS_P2;Temp;Humidity;BMP_temperature;BMP_pressure;BME280_temperature;BME280_humidity;BME280_pressure;Samples;Min_cycle;Max_cycle;Signal;HPM_P1;HPM_P2
2023/07/16 00:00:54;;;;;;;17.20;3.47;;;46.60;28.90;;;;;;4934994;28;20567;-62
2023/07/16 00:03:20;;;;;;;12.82;3.10;;;46.60;29.00;;;;;;4936031;29;20023;-63
2023/07/16 00:05:51;;;;;;;12.05;3.38;;;46.50;28.70;;;;;;4934379;29;20125;-65
2023/07/16 00:08:17;;;;;;;10.48;2.88;;;46.50;29.50;;;;;;4929363;29;20020;-64
2023/07/16 00:10:43;;;;;;;11.60;3.38;;;46.50;28.60;;;;;;4933414;29;20031;-63
2023/07/16 00:13:11;;;;;;;8.02;2.83;;;46.60;29.10;;;;;;4932847;29;20471;-62
2023/07/16 00:15:37;;;;;;;9.35;2.47;;;46.50;29.30;;;;;;4932872;29;20031;-65
2023/07/16 00:18:05;;;;;;;13.18;2.45;;;46.60;30.10;;;;;;4935301;29;20095;-63
2023/07/16 00:20:32;;;;;;;14.85;2.90;;;46.50;30.50;;;;;;4934756;29;20059;-62
2023/07/16 00:22:59;;;;;;;7.88;2.60;;;46.40;31.40;;;;;;4936636;29;20035;-63
2023/07/16 00:25:25;;;;;;;12.95;3.15;;;46.30;32.20;;;;;;4930374;29;20040;-64
2023/07/16 00:27:52;;;;;;;14.57;3.05;;;46.20;32.70;;;;;;4933456;29;20020;-63
2023/07/16 00:30:18;;;;;;;11.60;2.85;;;46.10;33.00;;;;;;4932406;29;20030;-65
2023/07/16 00:32:44;;;;;;;8.07;2.50;;;46.00;33.20;;;;;;4931099;29;20016;-63
2023/07/16 00:35:11;;;;;;;10.13;2.58;;;45.90;33.90;;;;;;4931307;29;20007;-62
2023/07/16 00:37:37;;;;;;;8.35;2.72;;;45.70;33.60;;;;;;4927168;29;20507;-63
2023/07/16 00:40:04;;;;;;;13.27;2.60;;;45.60;34.20;;;;;;4931044;29;20046;-63
2023/07/16 00:42:31;;;;;;;7.28;2.53;;;45.50;34.10;;;;;;4930738;29;20047;-62
2023/07/16 00:44:57;;;;;;;14.27;2.85;;;45.30;33.90;;;;;;4927541;29;20107;-63
2023/07/16 00:47:24;;;;;;;8.45;2.20;;;45.30;34.20;;;;;;4932436;29;20024;-61
2023/07/16 00:49:51;;;;;;;9.55;2.55;;;45.30;34.10;;;;;;4926973;29;20023;-63
2023/07/16 00:52:20;;;;;;;13.30;3.00;;;45.20;34.20;;;;;;4929618;29;20019;-65
2023/07/16 00:54:47;;;;;;;13.63;2.22;;;45.20;34.20;;;;;;4928461;29;20024;-65
2023/07/16 00:57:14;;;;;;;11.32;2.38;;;45.10;34.00;;;;;;4930154;29;20474;-64
2023/07/16 00:59:40;;;;;;;19.08;2.88;;;45.20;34.00;;;;;;4930599;29;20058;-62
2023/07/16 01:02:06;;;;;;;14.63;2.80;;;45.10;34.00;;;;;;4931767;29;20027;-65
2023/07/16 01:04:33;;;;;;;10.30;2.40;;;45.10;34.10;;;;;;4929198;29;20028;-62
2023/07/16 01:07:05;;;;;;;17.05;2.70;;;45.00;33.90;;;;;;4929605;29;20521;-61
2023/07/16 01:09:32;;;;;;;10.70;2.45;;;45.00;34.00;;;;;;4927512;29;20024;-63
2023/07/16 01:12:00;;;;;;;6.47;1.85;;;44.90;33.80;;;;;;4928944;29;20079;-63
2023/07/16 01:14:27;;;;;;;9.75;2.22;;;44.90;33.70;;;;;;4936555;29;20050;-65
2023/07/16 01:16:58;;;;;;;12.50;3.63;;;44.90;33.50;;;;;;4935686;29;20035;-67
2023/07/16 01:19:25;;;;;;;11.23;2.10;;;44.70;33.40;;;;;;4935243;29;21567;-62
2023/07/16 01:22:29;;;;;;;10.43;2.65;;;44.60;33.10;;;;;;4932250;29;20030;-64
2023/07/16 01:25:05;;;;;;;8.38;2.20;;;44.60;33.30;;;;;;4935410;29;20020;-65
2023/07/16 01:28:04;;;;;;;12.57;2.15;;;44.50;33.30;;;;;;4932181;29;20068;-65
2023/07/16 01:30:31;;;;;;;11.38;2.25;;;44.50;33.10;;;;;;4941392;29;20024;-63
2023/07/16 01:32:58;;;;;;;6.95;2.15;;;44.40;33.20;;;;;;4934231;29;20467;-63
2023/07/16 01:35:26;;;;;;;12.57;1.83;;;44.30;33.30;;;;;;4931017;29;20647;-64
2023/07/16 01:37:53;;;;;;;14.90;2.30;;;44.20;33.80;;;;;;4931053;29;20087;-64
2023/07/16 01:40:19;;;;;;;13.65;3.28;;;44.00;33.90;;;;;;4933468;29;20020;-64
2023/07/16 01:42:46;;;;;;;15.70;3.53;;;43.90;34.10;;;;;;4930676;29;20031;-65
2023/07/16 01:45:12;;;;;;;9.88;1.90;;;43.90;33.80;;;;;;4931287;29;20028;-64
2023/07/16 01:47:57;;;;;;;17.85;2.50;;;43.80;33.80;;;;;;4913994;29;20602;-65
2023/07/16 01:50:23;;;;;;;17.52;3.00;;;43.70;34.10;;;;;;4933858;29;20016;-63
2023/07/16 01:52:50;;;;;;;18.52;2.95;;;43.60;34.40;;;;;;4934559;29;20023;-66
2023/07/16 01:55:16;;;;;;;15.77;2.88;;;43.60;35.00;;;;;;4931932;29;20441;-63
2023/07/16 01:57:43;;;;;;;17.92;3.28;;;43.50;34.70;;;;;;4930021;29;20656;-64
2023/07/16 02:00:10;;;;;;;11.32;2.85;;;43.40;34.60;;;;;;4930562;29;20023;-64
2023/07/16 02:02:36;;;;;;;15.95;2.80;;;43.30;34.90;;;;;;4931992;29;20034;-63
2023/07/16 02:05:04;;;;;;;16.23;2.90;;;43.20;34.90;;;;;;4928591;29;20019;-63
2023/07/16 02:07:30;;;;;;;14.82;3.25;;;43.10;34.40;;;;;;4930485;29;20043;-65
2023/07/16 02:09:56;;;;;;;12.73;2.70;;;43.10;34.50;;;;;;4929647;29;20023;-64
2023/07/16 02:12:23;;;;;;;23.85;2.85;;;43.00;34.40;;;;;;4932480;29;20111;-65
2023/07/16 02:14:49;;;;;;;11.05;2.85;;;43.00;34.50;;;;;;4929322;29;20116;-63
2023/07/16 02:17:16;;;;;;;14.85;2.25;;;42.90;34.50;;;;;;4931194;29;20028;-62
2023/07/16 02:19:42;;;;;;;19.17;3.08;;;42.80;34.60;;;;;;4929361;29;20015;-64
2023/07/16 02:22:08;;;;;;;16.23;2.90;;;42.70;34.80;;;;;;4934179;29;20023;-64
2023/07/16 02:24:35;;;;;;;14.30;3.67;;;42.60;34.80;;;;;;4928523;29;20507;-64
2023/07/16 02:27:02;;;;;;;23.50;3.67;;;42.50;35.00;;;;;;4928956;29;20501;-65
2023/07/16 02:29:28;;;;;;;25.08;3.45;;;42.50;35.20;;;;;;4929691;29;20383;-63
2023/07/16 02:31:54;;;;;;;12.57;3.15;;;42.40;35.50;;;;;;4931379;29;20020;-62
2023/07/16 02:34:21;;;;;;;21.33;3.63;;;42.30;36.00;;;;;;4927737;29;20020;-61
2023/07/16 02:36:47;;;;;;;22.73;3.72;;;42.30;36.60;;;;;;4929810;29;20325;-64
2023/07/16 02:39:14;;;;;;;25.08;3.45;;;42.20;37.00;;;;;;4927072;29;20024;-65
2023/07/16 02:41:40;;;;;;;21.48;3.00;;;42.20;37.60;;;;;;4928800;29;20031;-65
2023/07/16 02:44:06;;;;;;;18.88;3.22;;;42.00;38.00;;;;;;4926618;29;20060;-65
2023/07/16 02:46:34;;;;;;;23.60;3.97;;;42.00;38.40;;;;;;4927048;29;20029;-63
2023/07/16 02:49:01;;;;;;;17.58;3.05;;;41.90;38.50;;;;;;4929197;29;20470;-62
2023/07/16 02:51:28;;;;;;;28.38;3.38;;;41.80;38.70;;;;;;4929615;29;20023;-63
2023/07/16 02:53:54;;;;;;;8.98;3.50;;;41.80;39.10;;;;;;4927377;29;20375;-65
2023/07/16 02:56:20;;;;;;;15.60;3.00;;;41.70;40.00;;;;;;4929253;29;20016;-64
2023/07/16 02:58:47;;;;;;;18.33;3.40;;;41.50;39.50;;;;;;4928938;29;20025;-67
2023/07/16 03:01:13;;;;;;;18.67;3.47;;;41.50;39.60;;;;;;4928505;29;20020;-64
2023/07/16 03:03:40;;;;;;;18.17;3.38;;;41.50;39.60;;;;;;4928687;29;20099;-63
2023/07/16 03:06:07;;;;;;;11.60;2.92;;;41.40;39.60;;;;;;4925652;29;20042;-63
2023/07/16 03:08:35;;;;;;;20.35;2.97;;;41.40;39.80;;;;;;4914299;29;20026;-64
2023/07/16 03:11:01;;;;;;;31.05;3.67;;;41.20;39.90;;;;;;4930034;29;20035;-65
2023/07/16 03:13:28;;;;;;;11.80;2.70;;;41.20;40.20;;;;;;4930692;29;20399;-63
2023/07/16 03:15:54;;;;;;;16.15;3.00;;;41.10;40.40;;;;;;4927508;29;20020;-64
2023/07/16 03:18:20;;;;;;;22.60;2.90;;;41.10;40.60;;;;;;4929300;29;20026;-65
2023/07/16 03:20:47;;;;;;;16.73;3.45;;;41.00;40.80;;;;;;4929080;29;20023;-63
2023/07/16 03:23:13;;;;;;;21.20;3.00;;;40.90;40.90;;;;;;4928483;29;20475;-66
2023/07/16 03:25:39;;;;;;;15.18;3.80;;;40.80;41.00;;;;;;4932194;29;20027;-65
2023/07/16 03:28:06;;;;;;;18.45;3.28;;;40.80;41.20;;;;;;4928556;29;20016;-63
2023/07/16 03:30:33;;;;;;;18.92;3.72;;;40.60;41.20;;;;;;4928948;29;20016;-65
2023/07/16 03:32:59;;;;;;;10.95;2.78;;;40.60;41.20;;;;;;4930081;29;20031;-63
2023/07/16 03:35:26;;;;;;;19.10;4.10;;;40.50;41.30;;;;;;4928411;29;20019;-63
2023/07/16 03:37:53;;;;;;;25.52;3.55;;;40.40;41.30;;;;;;4929929;29;20487;-64
2023/07/16 03:40:26;;;;;;;14.55;3.92;;;40.40;41.40;;;;;;4927744;29;20040;-65
2023/07/16 03:42:53;;;;;;;25.20;5.30;;;40.30;41.40;;;;;;4932936;29;20027;-63
2023/07/16 03:45:20;;;;;;;23.52;4.43;;;40.20;41.30;;;;;;4934517;29;20031;-64
2023/07/16 03:47:46;;;;;;;20.98;3.72;;;40.20;41.40;;;;;;4927429;29;20019;-63
2023/07/16 03:50:13;;;;;;;14.18;3.90;;;40.20;41.60;;;;;;4911760;29;20382;-64
2023/07/16 03:52:39;;;;;;;19.13;3.97;;;40.00;41.80;;;;;;4927399;29;20700;-63
2023/07/16 03:55:06;;;;;;;23.50;3.50;;;40.00;41.90;;;;;;4928636;29;20031;-63
2023/07/16 03:57:33;;;;;;;29.20;3.35;;;40.00;42.30;;;;;;4927912;29;20137;-63
2023/07/16 03:59:59;;;;;;;24.90;4.05;;;39.90;42.50;;;;;;4913887;29;20027;-63
2023/07/16 04:02:26;;;;;;;25.25;3.53;;;39.80;42.80;;;;;;4928502;29;20488;-65
2023/07/16 04:04:53;;;;;;;19.67;3.97;;;39.80;42.90;;;;;;4928274;29;20020;-63
2023/07/16 04:07:19;;;;;;;25.75;3.60;;;39.70;42.60;;;;;;4929817;29;20053;-64
2023/07/16 04:09:45;;;;;;;20.05;3.30;;;39.70;42.30;;;;;;4927402;29;20024;-63
2023/07/16 04:12:12;;;;;;;19.40;3.50;;;39.70;42.20;;;;;;4912330;29;20149;-66
2023/07/16 04:14:38;;;;;;;21.23;3.15;;;39.60;42.20;;;;;;4929594;29;20036;-65
2023/07/16 04:17:05;;;;;;;27.00;3.83;;;39.60;41.80;;;;;;4913699;29;20086;-65
2023/07/16 04:19:31;;;;;;;17.58;3.90;;;39.60;41.70;;;;;;4928883;29;20016;-63
2023/07/16 04:21:57;;;;;;;18.77;2.83;;;39.60;41.40;;;;;;4932304;29;20486;-64
2023/07/16 04:24:24;;;;;;;24.00;2.90;;;39.50;41.30;;;;;;4930257;29;20032;-63
2023/07/16 04:26:51;;;;;;;23.25;3.40;;;39.50;41.30;;;;;;4930242;29;20391;-64
2023/07/16 04:29:17;;;;;;;11.30;3.05;;;39.50;41.00;;;;;;4913658;29;20051;-65
2023/07/16 04:31:43;;;;;;;15.65;3.20;;;39.50;41.00;;;;;;4931171;29;20027;-64
2023/07/16 04:34:10;;;;;;;10.35;2.08;;;39.40;40.90;;;;;;4933831;29;20143;-65
2023/07/16 04:36:36;;;;;;;15.38;2.50;;;39.30;40.70;;;;;;4929027;29;20023;-65
2023/07/16 04:39:03;;;;;;;19.05;2.65;;;39.30;40.60;;;;;;4928178;29;20087;-66
2023/07/16 04:41:30;;;;;;;10.15;2.05;;;39.20;40.70;;;;;;4926704;29;20031;-65
2023/07/16 04:43:57;;;;;;;15.57;2.53;;;39.10;40.40;;;;;;4926528;29;20239;-64
2023/07/16 04:46:23;;;;;;;10.85;2.28;;;39.10;40.40;;;;;;4929261;29;20038;-64
2023/07/16 04:48:50;;;;;;;17.58;2.83;;;39.10;40.40;;;;;;4935699;29;20074;-64
2023/07/16 04:51:16;;;;;;;13.73;2.70;;;39.00;40.40;;;;;;4931906;29;20078;-65
2023/07/16 04:53:43;;;;;;;11.88;2.47;;;39.00;40.40;;;;;;4935210;29;20078;-64
2023/07/16 04:56:16;;;;;;;14.23;2.45;;;39.00;40.50;;;;;;4920346;29;20024;-65
2023/07/16 04:58:43;;;;;;;15.43;2.60;;;39.00;40.30;;;;;;4916038;29;20047;-65
2023/07/16 05:01:10;;;;;;;7.55;2.33;;;38.90;40.30;;;;;;4919576;29;20035;-64
2023/07/16 05:03:37;;;;;;;17.90;3.05;;;38.90;40.40;;;;;;4921919;29;20115;-65
2023/07/16 05:06:04;;;;;;;15.75;3.08;;;38.90;40.20;;;;;;4938776;29;20020;-65
2023/07/16 05:08:30;;;;;;;12.88;2.45;;;38.90;40.40;;;;;;4900226;29;20020;-66
2023/07/16 05:10:57;;;;;;;17.15;2.70;;;38.80;40.20;;;;;;4914679;29;20012;-65
2023/07/16 05:13:23;;;;;;;9.77;2.30;;;38.80;40.10;;;;;;4932384;29;20039;-66
2023/07/16 05:15:49;;;;;;;8.40;1.90;;;38.80;39.80;;;;;;4934214;29;20102;-63
2023/07/16 05:18:17;;;;;;;12.20;2.28;;;38.80;40.00;;;;;;4933448;29;20032;-64
2023/07/16 05:20:43;;;;;;;10.77;2.28;;;38.70;39.70;;;;;;4933164;29;20066;-64
2023/07/16 05:23:10;;;;;;;15.68;1.92;;;38.70;39.70;;;;;;4915891;29;20110;-65
2023/07/16 05:25:37;;;;;;;5.63;1.88;;;38.70;39.70;;;;;;4933668;29;20435;-65
2023/07/16 05:28:03;;;;;;;5.35;2.15;;;38.70;39.70;;;;;;4932378;29;20016;-65
2023/07/16 05:30:30;;;;;;;8.15;2.80;;;38.60;39.60;;;;;;4934596;29;20074;-65
2023/07/16 05:32:56;;;;;;;10.07;2.20;;;38.60;39.80;;;;;;4938653;29;20541;-68
2023/07/16 05:35:23;;;;;;;9.75;2.47;;;38.60;39.80;;;;;;4939536;29;20015;-65
2023/07/16 05:37:49;;;;;;;6.82;2.40;;;38.50;39.80;;;;;;4932244;29;21104;-65
2023/07/16 05:40:15;;;;;;;10.52;2.17;;;38.50;39.90;;;;;;4931030;29;20016;-63
2023/07/16 05:42:42;;;;;;;12.50;2.63;;;38.50;40.00;;;;;;4932866;29;20016;-63
2023/07/16 05:45:08;;;;;;;13.40;2.92;;;38.50;40.00;;;;;;4935987;29;20087;-66
2023/07/16 05:47:35;;;;;;;10.13;2.60;;;38.50;40.00;;;;;;4930322;29;20371;-65
2023/07/16 05:50:01;;;;;;;13.73;3.28;;;38.50;41.00;;;;;;4931798;29;20034;-62
2023/07/16 05:52:28;;;;;;;10.18;3.38;;;38.40;40.50;;;;;;4930048;29;20474;-64
2023/07/16 05:54:54;;;;;;;27.55;4.40;;;38.30;41.00;;;;;;4931167;29;20024;-66
2023/07/16 05:57:21;;;;;;;20.45;4.40;;;38.30;40.70;;;;;;4930839;29;20027;-64
2023/07/16 05:59:47;;;;;;;17.73;3.65;;;38.30;40.80;;;;;;4929916;29;20213;-64
2023/07/16 06:02:13;;;;;;;14.07;2.60;;;38.30;40.80;;;;;;4929665;29;20031;-66
2023/07/16 06:04:40;;;;;;;11.55;4.95;;;38.30;40.90;;;;;;4931132;29;20100;-63
2023/07/16 06:07:06;;;;;;;21.00;3.53;;;38.20;41.00;;;;;;4931371;29;20390;-65
2023/07/16 06:09:34;;;;;;;16.40;3.95;;;38.10;41.20;;;;;;4929878;29;20016;-65
2023/07/16 06:12:00;;;;;;;15.15;4.07;;;38.10;41.90;;;;;;4929803;29;20020;-64
2023/07/16 06:14:26;;;;;;;14.52;4.30;;;38.10;41.50;;;;;;4935632;29;20032;-64
2023/07/16 06:16:53;;;;;;;14.40;4.70;;;38.10;41.40;;;;;;4930622;29;20046;-65
2023/07/16 06:19:19;;;;;;;21.60;5.25;;;38.10;41.60;;;;;;4931674;29;20032;-63
2023/07/16 06:21:45;;;;;;;21.30;5.95;;;38.10;41.70;;;;;;4931117;29;20396;-65
2023/07/16 06:24:12;;;;;;;21.17;5.45;;;38.00;41.80;;;;;;4937165;29;20022;-67
2023/07/16 06:26:38;;;;;;;12.90;4.53;;;38.00;42.00;;;;;;4930331;29;20039;-66
2023/07/16 06:29:05;;;;;;;19.45;4.25;;;38.00;42.20;;;;;;4929803;29;20039;-66
2023/07/16 06:31:31;;;;;;;13.05;3.50;;;37.90;42.40;;;;;;4940241;29;20057;-65
2023/07/16 06:33:58;;;;;;;12.85;4.13;;;37.90;42.80;;;;;;4934334;29;20049;-66
2023/07/16 06:36:24;;;;;;;10.00;2.92;;;37.80;43.00;;;;;;4930472;29;20144;-64
2023/07/16 06:38:50;;;;;;;12.52;3.30;;;37.80;43.30;;;;;;4930728;29;20386;-64
2023/07/16 06:41:17;;;;;;;14.93;3.13;;;37.80;43.60;;;;;;4934926;29;20064;-65
2023/07/16 06:43:44;;;;;;;14.90;5.47;;;37.70;43.80;;;;;;4929974;29;20232;-64
2023/07/16 06:46:10;;;;;;;12.45;3.53;;;37.70;44.10;;;;;;4929574;29;20020;-65
2023/07/16 06:48:37;;;;;;;11.68;2.42;;;37.70;44.20;;;;;;4929703;29;20015;-67
2023/07/16 06:51:03;;;;;;;10.70;2.78;;;37.60;44.40;;;;;;4930224;29;20016;-65
2023/07/16 06:53:29;;;;;;;19.55;2.97;;;37.50;44.90;;;;;;4929247;29;20042;-64
2023/07/16 06:55:56;;;;;;;12.02;2.97;;;37.50;45.00;;;;;;4930072;29;20027;-68
2023/07/16 06:58:32;;;;;;;11.52;2.70;;;37.50;45.10;;;;;;4931307;29;20027;-63
2023/07/16 07:00:58;;;;;;;10.55;2.80;;;37.40;45.60;;;;;;4936936;29;20027;-66
2023/07/16 07:03:25;;;;;;;10.98;2.78;;;37.40;46.00;;;;;;4929676;29;20055;-64
2023/07/16 07:05:51;;;;;;;14.20;2.88;;;37.40;46.30;;;;;;4931280;29;20041;-64
2023/07/16 07:08:17;;;;;;;12.75;3.05;;;37.30;46.50;;;;;;4931846;29;20591;-63
2023/07/16 07:10:44;;;;;;;12.43;2.70;;;37.30;47.00;;;;;;4929275;29;20056;-64
2023/07/16 07:13:10;;;;;;;11.88;3.13;;;37.20;47.70;;;;;;4933208;29;20070;-65
2023/07/16 07:15:37;;;;;;;12.38;2.83;;;37.10;47.80;;;;;;4928448;29;20055;-64
2023/07/16 07:18:03;;;;;;;12.38;3.13;;;37.10;48.50;;;;;;4930981;29;20042;-66
2023/07/16 07:20:29;;;;;;;15.48;3.03;;;37.00;48.70;;;;;;4929244;29;20087;-64
2023/07/16 07:22:56;;;;;;;10.30;3.05;;;36.90;49.50;;;;;;4930050;29;20016;-65
2023/07/16 07:25:22;;;;;;;13.48;3.03;;;36.90;49.20;;;;;;4930052;29;20053;-65
2023/07/16 07:27:49;;;;;;;18.30;3.40;;;36.90;49.40;;;;;;4930880;29;20061;-63
2023/07/16 07:30:15;;;;;;;11.50;3.05;;;36.90;49.50;;;;;;4930405;29;20156;-64
2023/07/16 07:32:42;;;;;;;15.20;3.05;;;36.90;49.70;;;;;;4935127;29;20042;-64
2023/07/16 07:35:08;;;;;;;17.60;3.25;;;36.90;49.70;;;;;;4928705;29;20126;-65
2023/07/16 07:37:34;;;;;;;13.88;3.85;;;36.80;49.70;;;;;;4929547;29;20049;-64
2023/07/16 07:40:02;;;;;;;12.63;3.60;;;36.80;49.80;;;;;;4929847;29;20047;-64
2023/07/16 07:42:29;;;;;;;21.00;4.03;;;36.90;49.60;;;;;;4928798;29;20105;-65
2023/07/16 07:44:55;;;;;;;20.50;4.32;;;36.80;49.80;;;;;;4928745;29;20023;-64
2023/07/16 07:47:22;;;;;;;14.88;4.47;;;36.80;49.80;;;;;;4931456;29;20075;-65
2023/07/16 07:49:48;;;;;;;23.92;5.28;;;36.80;49.80;;;;;;4928982;29;20622;-66
2023/07/16 07:52:15;;;;;;;29.85;5.10;;;36.70;49.80;;;;;;4911528;29;20086;-63
2023/07/16 07:54:41;;;;;;;12.82;4.78;;;36.80;49.90;;;;;;4928673;29;20377;-63
2023/07/16 07:57:08;;;;;;;25.67;5.05;;;36.70;50.00;;;;;;4928145;29;20576;-65
2023/07/16 07:59:34;;;;;;;18.45;5.15;;;36.60;49.70;;;;;;4929321;29;20451;-65
2023/07/16 08:02:04;;;;;;;20.27;5.18;;;36.60;49.70;;;;;;4911195;29;20074;-65
2023/07/16 08:04:33;;;;;;;25.75;5.40;;;36.60;49.70;;;;;;4928795;29;20708;-63
2023/07/16 08:07:00;;;;;;;16.73;5.75;;;36.60;49.70;;;;;;4930768;29;20078;-64
2023/07/16 08:09:27;;;;;;;23.92;5.20;;;36.60;49.60;;;;;;4928895;29;20043;-66
2023/07/16 08:11:53;;;;;;;14.30;5.28;;;36.60;49.60;;;;;;4928165;29;20060;-66
2023/07/16 08:14:20;;;;;;;12.80;4.93;;;36.60;49.50;;;;;;4928369;29;20156;-65
2023/07/16 08:16:46;;;;;;;18.38;5.07;;;36.60;49.50;;;;;;4929967;29;20050;-65
2023/07/16 08:19:13;;;;;;;19.25;5.32;;;36.50;49.70;;;;;;4930505;29;20059;-65
2023/07/16 08:21:39;;;;;;;18.17;5.00;;;36.50;50.00;;;;;;4914408;29;20111;-65
2023/07/16 08:24:06;;;;;;;20.33;4.78;;;36.50;50.00;;;;;;4935382;29;20482;-65
2023/07/16 08:26:33;;;;;;;22.70;5.72;;;36.50;50.60;;;;;;4934556;29;20418;-64
2023/07/16 08:29:01;;;;;;;23.92;5.22;;;36.30;50.30;;;;;;4932295;29;20047;-66
2023/07/16 08:31:28;;;;;;;25.42;5.57;;;36.30;50.40;;;;;;4934863;29;20132;-66
2023/07/16 08:33:54;;;;;;;21.23;5.47;;;36.40;51.00;;;;;;4933972;29;20126;-65
2023/07/16 08:36:20;;;;;;;21.58;5.15;;;36.40;50.40;;;;;;4918162;29;20049;-65
2023/07/16 08:38:47;;;;;;;23.48;5.15;;;36.40;50.40;;;;;;4935315;29;20140;-64
2023/07/16 08:41:15;;;;;;;27.85;5.75;;;36.40;50.40;;;;;;4935928;29;20102;-65
2023/07/16 08:43:43;;;;;;;19.60;5.18;;;36.40;50.60;;;;;;4934560;29;20075;-65
2023/07/16 08:46:09;;;;;;;13.88;4.25;;;36.30;50.80;;;;;;4935264;29;20133;-65
2023/07/16 08:48:36;;;;;;;20.50;5.30;;;36.20;51.10;;;;;;4934452;29;20045;-66
2023/07/16 08:51:03;;;;;;;21.08;5.05;;;36.20;51.20;;;;;;4935705;29;20522;-66
2023/07/16 08:53:30;;;;;;;22.95;5.35;;;36.20;51.20;;;;;;4933403;29;20132;-66
2023/07/16 08:55:57;;;;;;;35.28;5.93;;;36.20;51.20;;;;;;4935055;29;20069;-66
2023/07/16 08:58:24;;;;;;;38.20;5.55;;;36.10;51.20;;;;;;4935467;29;20623;-64
2023/07/16 09:00:52;;;;;;;27.83;5.25;;;36.10;51.40;;;;;;4933953;29;20104;-68
2023/07/16 09:03:19;;;;;;;40.13;5.22;;;36.10;51.80;;;;;;4935562;29;20086;-65
2023/07/16 09:05:45;;;;;;;17.63;4.95;;;36.00;51.90;;;;;;4937171;29;20104;-67
2023/07/16 09:08:13;;;;;;;23.23;5.10;;;35.90;52.20;;;;;;4936404;29;20120;-66
2023/07/16 09:10:41;;;;;;;24.83;4.68;;;35.90;52.20;;;;;;4936157;29;21516;-66
2023/07/16 09:13:08;;;;;;;31.13;6.05;;;35.90;51.90;;;;;;4933373;29;20088;-66
2023/07/16 09:15:34;;;;;;;30.35;5.30;;;35.90;51.70;;;;;;4934121;29;20114;-67
2023/07/16 09:18:01;;;;;;;22.27;5.32;;;35.80;51.50;;;;;;4934874;29;20045;-65
2023/07/16 09:20:30;;;;;;;15.13;4.45;;;35.80;51.50;;;;;;4934477;29;20043;-63
2023/07/16 09:22:57;;;;;;;17.48;3.88;;;35.80;51.40;;;;;;4934068;29;20051;-67
2023/07/16 09:25:31;;;;;;;12.73;3.63;;;35.70;51.70;;;;;;4934567;29;20061;-65
2023/07/16 09:28:04;;;;;;;8.57;3.08;;;35.60;51.70;;;;;;4934723;29;20107;-64
2023/07/16 09:30:34;;;;;;;10.13;2.88;;;35.60;52.00;;;;;;4935507;29;20404;-65
2023/07/16 09:33:12;;;;;;;13.13;3.20;;;35.50;52.10;;;;;;4932100;29;20421;-65
2023/07/16 09:35:38;;;;;;;6.78;3.25;;;35.50;52.20;;;;;;4932040;29;20057;-65
2023/07/16 09:38:06;;;;;;;17.80;3.70;;;35.50;52.20;;;;;;4930908;29;20526;-68
2023/07/16 09:40:32;;;;;;;12.43;3.58;;;35.50;52.10;;;;;;4915827;29;20052;-65
2023/07/16 09:43:01;;;;;;;14.60;3.72;;;35.60;52.20;;;;;;4933231;29;20045;-64
2023/07/16 09:45:28;;;;;;;18.30;3.60;;;35.50;52.50;;;;;;4930753;29;20059;-66
2023/07/16 09:47:54;;;;;;;21.27;4.20;;;35.40;52.90;;;;;;4930997;29;20060;-65
2023/07/16 09:50:27;;;;;;;13.88;3.80;;;35.40;53.30;;;;;;4930699;29;20141;-66
2023/07/16 09:52:53;;;;;;;17.20;4.38;;;35.30;53.40;;;;;;4930807;29;20055;-65
2023/07/16 09:55:23;;;;;;;12.15;3.63;;;35.30;53.50;;;;;;4931210;29;20088;-64
2023/07/16 09:57:55;;;;;;;14.48;3.55;;;35.20;53.90;;;;;;4934296;29;20050;-64
2023/07/16 10:00:23;;;;;;;18.38;5.55;;;35.10;54.00;;;;;;4932418;29;20057;-65
2023/07/16 10:02:52;;;;;;;26.08;8.20;;;35.00;54.50;;;;;;4937978;29;20064;-66
2023/07/16 10:05:28;;;;;;;24.45;8.15;;;34.90;55.30;;;;;;4931161;29;20066;-65
2023/07/16 10:07:59;;;;;;;21.88;7.20;;;34.80;56.00;;;;;;4932515;29;20073;-63
2023/07/16 10:10:43;;;;;;;17.25;5.63;;;34.80;57.10;;;;;;4931515;29;20061;-63
2023/07/16 10:13:13;;;;;;;20.23;5.63;;;34.70;57.90;;;;;;4933453;29;20084;-65
2023/07/16 10:15:50;;;;;;;25.95;5.47;;;34.60;59.30;;;;;;4930265;29;20084;-64
2023/07/16 10:18:24;;;;;;;18.17;5.32;;;34.60;60.40;;;;;;4930324;29;20456;-65
2023/07/16 10:20:52;;;;;;;17.48;4.47;;;34.40;61.80;;;;;;4937205;29;20062;-64
2023/07/16 10:23:19;;;;;;;17.35;4.93;;;34.30;62.90;;;;;;4938650;29;20073;-65
2023/07/16 10:26:11;;;;;;;22.33;4.32;;;34.20;63.90;;;;;;4937010;29;20085;-67
2023/07/16 10:28:38;;;;;;;15.85;4.25;;;34.20;64.40;;;;;;4937920;29;20063;-63
2023/07/16 10:31:07;;;;;;;18.33;4.20;;;34.20;65.40;;;;;;4939917;29;20061;-63
2023/07/16 10:33:37;;;;;;;18.60;4.97;;;34.20;65.60;;;;;;4935939;29;20580;-65
2023/07/16 10:36:03;;;;;;;14.73;4.80;;;34.10;66.60;;;;;;4936560;29;20074;-65
2023/07/16 10:38:30;;;;;;;13.15;4.05;;;34.10;67.00;;;;;;4935422;29;20062;-65
2023/07/16 10:40:56;;;;;;;15.43;4.60;;;34.20;67.10;;;;;;4941565;29;20065;-69
2023/07/16 10:43:23;;;;;;;16.23;4.80;;;34.10;66.80;;;;;;4938059;29;20539;-62
2023/07/16 10:45:51;;;;;;;20.10;4.72;;;34.00;67.10;;;;;;4941650;29;20089;-64
2023/07/16 10:48:17;;;;;;;24.88;4.45;;;34.00;67.20;;;;;;4940885;29;20063;-64
2023/07/16 10:50:44;;;;;;;15.38;4.65;;;33.90;67.70;;;;;;4933637;29;20139;-66
2023/07/16 10:53:12;;;;;;;13.00;4.45;;;33.90;67.10;;;;;;4930903;29;20062;-63
2023/07/16 10:55:41;;;;;;;20.85;4.40;;;33.90;67.30;;;;;;4937812;29;20530;-67
2023/07/16 10:58:07;;;;;;;17.15;4.18;;;33.80;66.70;;;;;;4936822;29;20060;-66
2023/07/16 11:00:39;;;;;;;12.88;4.63;;;33.80;66.90;;;;;;4940525;29;20215;-65
2023/07/16 11:03:05;;;;;;;12.20;4.45;;;33.80;67.10;;;;;;4938318;29;20061;-65
2023/07/16 11:05:32;;;;;;;31.65;4.95;;;33.70;67.60;;;;;;4937997;29;20134;-65
2023/07/16 11:07:58;;;;;;;18.48;4.35;;;33.60;68.10;;;;;;4936358;29;20063;-65
2023/07/16 11:10:28;;;;;;;28.25;4.82;;;33.60;68.60;;;;;;4938737;29;20394;-63
2023/07/16 11:12:56;;;;;;;18.90;4.07;;;33.60;69.10;;;;;;4930693;29;20076;-63
2023/07/16 11:15:33;;;;;;;16.50;3.67;;;33.60;70.30;;;;;;4932582;29;20088;-64
2023/07/16 11:17:59;;;;;;;24.63;4.75;;;33.60;71.20;;;;;;4929971;29;20069;-64
2023/07/16 11:20:26;;;;;;;28.42;4.70;;;33.60;72.20;;;;;;4931685;29;20067;-63
2023/07/16 11:22:52;;;;;;;22.95;4.47;;;33.50;73.50;;;;;;4934879;29;20544;-66
2023/07/16 11:25:20;;;;;;;23.95;4.25;;;33.50;75.10;;;;;;4937226;29;20146;-65
2023/07/16 11:27:46;;;;;;;29.90;4.45;;;33.40;76.10;;;;;;4940285;29;20092;-63
2023/07/16 11:30:13;;;;;;;32.42;5.53;;;33.50;77.20;;;;;;4936630;29;20081;-65
2023/07/16 11:32:49;;;;;;;35.20;5.07;;;33.40;78.70;;;;;;4938806;29;20070;-65
2023/07/16 11:35:19;;;;;;;29.58;4.90;;;33.40;79.80;;;;;;4936979;29;20402;-65
2023/07/16 11:37:47;;;;;;;36.53;5.10;;;33.40;81.10;;;;;;4931025;29;20526;-67
2023/07/16 11:40:20;;;;;;;21.65;4.80;;;33.40;82.40;;;;;;4938326;29;20072;-63
2023/07/16 11:42:47;;;;;;;20.95;4.25;;;33.30;85.50;;;;;;4937652;29;20073;-64
2023/07/16 11:45:18;;;;;;;32.20;5.03;;;33.30;88.00;;;;;;4935277;29;20070;-63
2023/07/16 11:47:45;;;;;;;23.48;5.45;;;33.30;90.10;;;;;;4931231;29;20102;-64
2023/07/16 11:50:11;;;;;;;25.10;5.28;;;33.20;91.20;;;;;;4935490;29;20161;-63
2023/07/16 11:52:39;;;;;;;22.10;5.28;;;33.10;91.90;;;;;;4931607;29;20495;-63
2023/07/16 11:55:06;;;;;;;21.65;4.40;;;33.20;92.50;;;;;;4929651;29;20066;-65
2023/07/16 11:57:32;;;;;;;33.50;5.90;;;33.10;92.90;;;;;;4936030;29;20462;-65
2023/07/16 11:59:59;;;;;;;25.60;5.25;;;33.10;92.90;;;;;;4930338;29;20088;-63
2023/07/16 12:02:28;;;;;;;43.85;5.95;;;33.00;93.00;;;;;;4934617;29;20062;-65
2023/07/16 12:04:55;;;;;;;33.33;5.38;;;33.10;92.80;;;;;;4932347;29;20531;-62
2023/07/16 12:07:36;;;;;;;40.55;5.60;;;33.10;92.40;;;;;;4936162;29;20163;-64
2023/07/16 12:10:07;;;;;;;36.15;4.75;;;33.10;92.10;;;;;;4936135;29;20079;-64
2023/07/16 12:12:37;;;;;;;22.33;4.63;;;33.10;91.80;;;;;;4929262;29;20144;-65
2023/07/16 12:15:05;;;;;;;26.45;4.90;;;33.10;91.60;;;;;;4928922;29;20446;-64
2023/07/16 12:17:32;;;;;;;38.40;4.78;;;33.10;91.50;;;;;;4930907;29;20063;-65
2023/07/16 12:19:58;;;;;;;31.95;5.30;;;33.10;91.40;;;;;;4932598;29;20063;-64
2023/07/16 12:22:24;;;;;;;21.63;4.18;;;33.10;91.50;;;;;;4933414;29;20070;-64
2023/07/16 12:24:51;;;;;;;24.67;4.75;;;33.10;91.40;;;;;;4934839;29;20069;-65
2023/07/16 12:27:20;;;;;;;22.00;4.68;;;33.20;91.40;;;;;;4935490;29;20647;-64
2023/07/16 12:29:46;;;;;;;31.65;5.63;;;33.20;91.10;;;;;;4919686;29;20145;-63
2023/07/16 12:32:14;;;;;;;26.10;4.10;;;33.20;91.00;;;;;;4935794;29;20060;-64
2023/07/16 12:34:40;;;;;;;20.27;4.82;;;33.20;90.80;;;;;;4922245;29;20415;-65
2023/07/16 12:37:07;;;;;;;30.65;5.00;;;33.20;90.30;;;;;;4936777;29;20068;-65
2023/07/16 12:39:33;;;;;;;26.13;4.10;;;33.30;89.80;;;;;;4941650;29;20636;-64